sensor_id;sensor_type;location;lat;lon;timestamp;pressure;altitude;pressure_sealevel;temperature;humidity
47366;BME280;33105;47.964;7.982;2023-04-03T00:01:59;97167.25;;;4.35;91.99
47366;BME280;33105;47.964;7.982;2023-04-03T00:05:00;97165.56;;;4.40;92.21
47366;BME280;33105;47.964;7.982;2023-04-03T00:08:01;97173.06;;;4.25;91.58
47366;BME280;33105;47.964;7.982;2023-04-03T00:11:03;97174.31;;;4.29;91.18
47366;BME280;33105;47.964;7.982;2023-04-03T00:14:05;97174.75;;;4.26;92.58
47366;BME280;33105;47.964;7.982;2023-04-03T00:17:06;97174.09;;;4.31;92.80
47366;BME280;33105;47.964;7.982;2023-04-03T00:20:07;97173.13;;;4.19;91.48
47366;BME280;33105;47.964;7.982;2023-04-03T00:23:09;97180.34;;;4.25;90.45
47366;BME280;33105;47.964;7.982;2023-04-03T00:26:11;97179.56;;;4.18;90.73
47366;BME280;33105;47.964;7.982;2023-04-03T00:29:14;97187.69;;;4.18;90.58
47366;BME280;33105;47.964;7.982;2023-04-03T00:32:15;97194.53;;;4.20;90.71
47366;BME280;33105;47.964;7.982;2023-04-03T00:35:19;97194.34;;;4.08;90.04
47366;BME280;33105;47.964;7.982;2023-04-03T00:38:21;97184.34;;;4.16;90.51
47366;BME280;33105;47.964;7.982;2023-04-03T00:41:23;97190.81;;;4.01;89.95
47366;BME280;33105;47.964;7.982;2023-04-03T00:47:29;97192.69;;;4.07;89.85
47366;BME280;33105;47.964;7.982;2023-04-03T00:50:33;97194.13;;;4.10;90.10
47366;BME280;33105;47.964;7.982;2023-04-03T00:53:57;97178.53;;;3.99;90.06
47366;BME280;33105;47.964;7.982;2023-04-03T00:56:59;97187.69;;;4.04;91.11
47366;BME280;33105;47.964;7.982;2023-04-03T01:00:05;97195.16;;;4.09;90.18
47366;BME280;33105;47.964;7.982;2023-04-03T01:03:08;97184.31;;;4.29;91.68
47366;BME280;33105;47.964;7.982;2023-04-03T01:06:32;97187.47;;;4.19;91.92
47366;BME280;33105;47.964;7.982;2023-04-03T01:09:41;97186.44;;;4.20;92.63
47366;BME280;33105;47.964;7.982;2023-04-03T01:12:45;97188.88;;;4.22;91.29
47366;BME280;33105;47.964;7.982;2023-04-03T01:15:47;97190.13;;;4.39;91.68
47366;BME280;33105;47.964;7.982;2023-04-03T01:18:49;97187.63;;;4.31;89.32
47366;BME280;33105;47.964;7.982;2023-04-03T01:25:30;97184.19;;;3.91;90.05
47366;BME280;33105;47.964;7.982;2023-04-03T01:28:34;97191.44;;;4.10;90.50
47366;BME280;33105;47.964;7.982;2023-04-03T01:34:40;97196.41;;;4.06;89.75
47366;BME280;33105;47.964;7.982;2023-04-03T01:37:41;97196.41;;;4.06;91.34
47366;BME280;33105;47.964;7.982;2023-04-03T01:40:43;97201.84;;;3.80;90.29
47366;BME280;33105;47.964;7.982;2023-04-03T01:43:44;97201.84;;;3.73;89.05
47366;BME280;33105;47.964;7.982;2023-04-03T01:46:46;97207.66;;;3.77;91.16
47366;BME280;33105;47.964;7.982;2023-04-03T01:49:47;97196.66;;;3.85;90.85
47366;BME280;33105;47.964;7.982;2023-04-03T01:52:48;97193.31;;;4.03;89.24
47366;BME280;33105;47.964;7.982;2023-04-03T01:55:50;97193.91;;;4.12;89.91
47366;BME280;33105;47.964;7.982;2023-04-03T01:58:51;97191.44;;;4.03;90.98
47366;BME280;33105;47.964;7.982;2023-04-03T02:01:53;97183.72;;;4.00;90.81
47366;BME280;33105;47.964;7.982;2023-04-03T02:04:54;97186.06;;;3.90;88.94
47366;BME280;33105;47.964;7.982;2023-04-03T02:07:56;97178.56;;;3.86;90.73
47366;BME280;33105;47.964;7.982;2023-04-03T02:10:57;97183.97;;;3.86;89.50
47366;BME280;33105;47.964;7.982;2023-04-03T02:13:59;97176.09;;;3.71;90.14
47366;BME280;33105;47.964;7.982;2023-04-03T02:17:01;97173.78;;;3.74;89.83
47366;BME280;33105;47.964;7.982;2023-04-03T02:20:06;97171.94;;;3.62;88.30
47366;BME280;33105;47.964;7.982;2023-04-03T02:23:08;97166.72;;;3.73;90.19
47366;BME280;33105;47.964;7.982;2023-04-03T02:26:12;97168.59;;;3.66;89.04
47366;BME280;33105;47.964;7.982;2023-04-03T02:29:13;97168.59;;;3.80;89.90
47366;BME280;33105;47.964;7.982;2023-04-03T02:32:15;97164.00;;;3.80;89.50
47366;BME280;33105;47.964;7.982;2023-04-03T02:35:16;97175.25;;;3.90;89.74
47366;BME280;33105;47.964;7.982;2023-04-03T02:38:18;97172.94;;;3.81;90.11
47366;BME280;33105;47.964;7.982;2023-04-03T02:41:19;97168.38;;;3.74;90.84
47366;BME280;33105;47.964;7.982;2023-04-03T02:44:22;97169.84;;;3.84;90.63
47366;BME280;33105;47.964;7.982;2023-04-03T02:47:24;97165.47;;;3.76;89.31
47366;BME280;33105;47.964;7.982;2023-04-03T02:50:25;97165.69;;;3.61;89.79
47366;BME280;33105;47.964;7.982;2023-04-03T02:53:27;97165.06;;;3.66;90.67
47366;BME280;33105;47.964;7.982;2023-04-03T02:56:28;97165.91;;;3.66;90.79
47366;BME280;33105;47.964;7.982;2023-04-03T02:59:30;97162.56;;;3.58;90.82
47366;BME280;33105;47.964;7.982;2023-04-03T03:02:31;97170.25;;;3.54;89.93
47366;BME280;33105;47.964;7.982;2023-04-03T03:05:32;97170.25;;;3.61;90.85
47366;BME280;33105;47.964;7.982;2023-04-03T03:08:34;97170.03;;;3.75;89.96
47366;BME280;33105;47.964;7.982;2023-04-03T03:11:35;97176.09;;;3.71;88.61
47366;BME280;33105;47.964;7.982;2023-04-03T03:14:37;97168.56;;;3.47;89.22
47366;BME280;33105;47.964;7.982;2023-04-03T03:17:38;97174.00;;;3.40;89.80
47366;BME280;33105;47.964;7.982;2023-04-03T03:20:40;97170.47;;;3.39;90.27
47366;BME280;33105;47.964;7.982;2023-04-03T03:23:41;97167.31;;;3.29;88.32
47366;BME280;33105;47.964;7.982;2023-04-03T03:26:42;97171.91;;;3.29;88.91
47366;BME280;33105;47.964;7.982;2023-04-03T03:29:44;97178.75;;;3.25;90.14
47366;BME280;33105;47.964;7.982;2023-04-03T03:32:47;97176.69;;;3.33;90.65
47366;BME280;33105;47.964;7.982;2023-04-03T03:35:48;97175.03;;;3.32;89.02
47366;BME280;33105;47.964;7.982;2023-04-03T03:38:50;97175.66;;;3.48;89.57
47366;BME280;33105;47.964;7.982;2023-04-03T03:41:51;97177.53;;;3.54;90.41
47366;BME280;33105;47.964;7.982;2023-04-03T03:44:55;97183.56;;;3.56;89.36
47366;BME280;33105;47.964;7.982;2023-04-03T03:47:56;97178.16;;;3.36;88.45
47366;BME280;33105;47.964;7.982;2023-04-03T03:50:58;97185.22;;;3.44;90.21
47366;BME280;33105;47.964;7.982;2023-04-03T03:54:04;97179.81;;;3.44;88.93
47366;BME280;33105;47.964;7.982;2023-04-03T03:57:05;97197.91;;;3.56;89.52
47366;BME280;33105;47.964;7.982;2023-04-03T04:00:07;97196.03;;;3.44;89.67
47366;BME280;33105;47.964;7.982;2023-04-03T04:03:16;97192.06;;;3.39;88.22
47366;BME280;33105;47.964;7.982;2023-04-03T04:06:20;97197.69;;;3.38;88.11
47366;BME280;33105;47.964;7.982;2023-04-03T04:09:22;97195.00;;;3.58;88.36
47366;BME280;33105;47.964;7.982;2023-04-03T04:12:24;97189.16;;;3.34;86.30
47366;BME280;33105;47.964;7.982;2023-04-03T04:15:25;97187.94;;;3.44;87.46
47366;BME280;33105;47.964;7.982;2023-04-03T04:18:28;97188.94;;;3.49;87.57
47366;BME280;33105;47.964;7.982;2023-04-03T04:21:29;97198.72;;;3.57;87.61
47366;BME280;33105;47.964;7.982;2023-04-03T04:24:31;97198.53;;;3.78;87.00
47366;BME280;33105;47.964;7.982;2023-04-03T04:27:33;97200.59;;;3.83;88.16
47366;BME280;33105;47.964;7.982;2023-04-03T04:30:35;97192.09;;;3.59;87.74
47366;BME280;33105;47.964;7.982;2023-04-03T04:33:38;97190.81;;;3.75;89.19
47366;BME280;33105;47.964;7.982;2023-04-03T04:36:40;97197.47;;;3.79;89.42
47366;BME280;33105;47.964;7.982;2023-04-03T04:39:42;97189.38;;;3.72;87.07
47366;BME280;33105;47.964;7.982;2023-04-03T04:42:44;97183.34;;;3.57;86.63
47366;BME280;33105;47.964;7.982;2023-04-03T04:45:46;97186.06;;;3.64;88.45
47366;BME280;33105;47.964;7.982;2023-04-03T04:48:49;97190.22;;;3.66;87.51
47366;BME280;33105;47.964;7.982;2023-04-03T04:51:52;97193.75;;;3.67;87.75
47366;BME280;33105;47.964;7.982;2023-04-03T04:54:58;97187.50;;;3.80;87.88
47366;BME280;33105;47.964;7.982;2023-04-03T04:58:00;97193.56;;;3.68;87.41
47366;BME280;33105;47.964;7.982;2023-04-03T05:01:04;97191.66;;;3.62;87.80
47366;BME280;33105;47.964;7.982;2023-04-03T05:04:07;97194.78;;;3.66;87.44
47366;BME280;33105;47.964;7.982;2023-04-03T05:07:09;97193.09;;;3.71;86.72
47366;BME280;33105;47.964;7.982;2023-04-03T05:10:12;97209.53;;;3.83;87.18
47366;BME280;33105;47.964;7.982;2023-04-03T05:13:15;97202.69;;;3.94;87.01
47366;BME280;33105;47.964;7.982;2023-04-03T05:16:17;97206.84;;;3.57;86.79
47366;BME280;33105;47.964;7.982;2023-04-03T05:19:19;97213.06;;;3.64;86.69
47366;BME280;33105;47.964;7.982;2023-04-03T05:22:21;97216.41;;;3.66;87.27
47366;BME280;33105;47.964;7.982;2023-04-03T05:25:23;97213.91;;;3.71;88.50
47366;BME280;33105;47.964;7.982;2023-04-03T05:28:27;97215.78;;;3.90;88.62
47366;BME280;33105;47.964;7.982;2023-04-03T05:31:28;97205.19;;;3.82;88.79
47366;BME280;33105;47.964;7.982;2023-04-03T05:34:31;97209.53;;;3.83;87.92
47366;BME280;33105;47.964;7.982;2023-04-03T05:37:33;97216.19;;;3.87;88.18
47366;BME280;33105;47.964;7.982;2023-04-03T05:40:35;97215.38;;;3.93;88.40
47366;BME280;33105;47.964;7.982;2023-04-03T05:43:37;97211.41;;;3.76;87.40
47366;BME280;33105;47.964;7.982;2023-04-03T05:46:40;97212.88;;;3.59;86.84
47366;BME280;33105;47.964;7.982;2023-04-03T05:49:44;97221.19;;;3.77;87.47
47366;BME280;33105;47.964;7.982;2023-04-03T05:52:50;97221.59;;;3.61;86.44
47366;BME280;33105;47.964;7.982;2023-04-03T05:55:54;97224.91;;;3.76;86.79
47366;BME280;33105;47.964;7.982;2023-04-03T05:58:56;97218.28;;;3.65;83.70
47366;BME280;33105;47.964;7.982;2023-04-03T06:01:58;97225.09;;;3.48;82.57
47366;BME280;33105;47.964;7.982;2023-04-03T06:05:00;97231.56;;;3.54;82.63
47366;BME280;33105;47.964;7.982;2023-04-03T06:08:02;97228.84;;;3.40;81.98
47366;BME280;33105;47.964;7.982;2023-04-03T06:11:06;97229.03;;;3.32;78.78
47366;BME280;33105;47.964;7.982;2023-04-03T06:14:10;97226.34;;;3.39;80.34
47366;BME280;33105;47.964;7.982;2023-04-03T06:17:12;97231.53;;;3.47;79.13
47366;BME280;33105;47.964;7.982;2023-04-03T06:20:14;97237.75;;;3.28;78.12
47366;BME280;33105;47.964;7.982;2023-04-03T06:23:17;97230.88;;;3.25;77.98
47366;BME280;33105;47.964;7.982;2023-04-03T06:26:18;97233.59;;;3.32;77.21
47366;BME280;33105;47.964;7.982;2023-04-03T06:29:20;97243.34;;;3.26;77.94
47366;BME280;33105;47.964;7.982;2023-04-03T06:32:21;97243.97;;;3.28;77.21
47366;BME280;33105;47.964;7.982;2023-04-03T06:35:22;97253.72;;;3.29;76.99
47366;BME280;33105;47.964;7.982;2023-04-03T06:38:25;97252.13;;;3.41;76.35
47366;BME280;33105;47.964;7.982;2023-04-03T06:41:26;97249.41;;;3.41;77.35
47366;BME280;33105;47.964;7.982;2023-04-03T06:44:27;97241.31;;;3.41;75.76
47366;BME280;33105;47.964;7.982;2023-04-03T06:47:29;97250.88;;;3.51;75.52
47366;BME280;33105;47.964;7.982;2023-04-03T06:50:30;97259.38;;;3.48;77.68
47366;BME280;33105;47.964;7.982;2023-04-03T06:53:32;97258.78;;;3.52;76.50
47366;BME280;33105;47.964;7.982;2023-04-03T06:56:33;97258.13;;;3.50;74.64
47366;BME280;33105;47.964;7.982;2023-04-03T06:59:35;97256.31;;;3.64;75.53
47366;BME280;33105;47.964;7.982;2023-04-03T07:02:37;97263.75;;;3.49;72.20
47366;BME280;33105;47.964;7.982;2023-04-03T07:05:39;97260.88;;;3.76;74.44
47366;BME280;33105;47.964;7.982;2023-04-03T07:08:41;97267.53;;;3.87;72.77
47366;BME280;33105;47.964;7.982;2023-04-03T07:11:44;97263.78;;;3.62;72.51
47366;BME280;33105;47.964;7.982;2023-04-03T07:14:45;97268.78;;;3.65;71.79
47366;BME280;33105;47.964;7.982;2023-04-03T07:17:46;97277.09;;;3.63;73.10
47366;BME280;33105;47.964;7.982;2023-04-03T07:20:47;97279.59;;;3.65;74.00
47366;BME280;33105;47.964;7.982;2023-04-03T07:23:49;97280.19;;;3.54;72.20
47366;BME280;33105;47.964;7.982;2023-04-03T07:26:52;97287.88;;;3.57;70.49
47366;BME280;33105;47.964;7.982;2023-04-03T07:29:53;97287.06;;;3.63;72.23
47366;BME280;33105;47.964;7.982;2023-04-03T07:32:56;97287.31;;;3.94;72.69
47366;BME280;33105;47.964;7.982;2023-04-03T07:35:59;97288.53;;;3.85;71.40
47366;BME280;33105;47.964;7.982;2023-04-03T07:39:01;97298.31;;;4.06;72.70
47366;BME280;33105;47.964;7.982;2023-04-03T07:42:02;97294.56;;;4.00;67.98
47366;BME280;33105;47.964;7.982;2023-04-03T07:45:04;97300.00;;;4.14;69.43
47366;BME280;33105;47.964;7.982;2023-04-03T07:48:05;97305.38;;;4.53;69.22
47366;BME280;33105;47.964;7.982;2023-04-03T07:51:07;97307.06;;;4.28;68.08
47366;BME280;33105;47.964;7.982;2023-04-03T07:54:08;97311.59;;;4.54;68.61
47366;BME280;33105;47.964;7.982;2023-04-03T07:57:09;97317.03;;;4.34;69.34
47366;BME280;33105;47.964;7.982;2023-04-03T08:00:11;97310.34;;;4.69;69.70
47366;BME280;33105;47.964;7.982;2023-04-03T08:03:16;97310.16;;;4.51;70.31
47366;BME280;33105;47.964;7.982;2023-04-03T08:06:17;97308.31;;;4.32;68.16
47366;BME280;33105;47.964;7.982;2023-04-03T08:09:18;97307.47;;;3.98;68.38
47366;BME280;33105;47.964;7.982;2023-04-03T08:12:20;97310.75;;;3.74;70.50
47366;BME280;33105;47.964;7.982;2023-04-03T08:15:21;97315.75;;;3.70;71.07
47366;BME280;33105;47.964;7.982;2023-04-03T08:18:23;97317.00;;;3.68;71.28
47366;BME280;33105;47.964;7.982;2023-04-03T08:21:25;97314.28;;;3.61;69.53
47366;BME280;33105;47.964;7.982;2023-04-03T08:24:27;97312.84;;;3.79;70.84
47366;BME280;33105;47.964;7.982;2023-04-03T08:27:28;97316.19;;;3.67;70.29
47366;BME280;33105;47.964;7.982;2023-04-03T08:30:29;97320.78;;;3.93;71.48
47366;BME280;33105;47.964;7.982;2023-04-03T08:33:30;97326.78;;;3.82;69.11
47366;BME280;33105;47.964;7.982;2023-04-03T08:36:31;97323.69;;;3.98;68.57
47366;BME280;33105;47.964;7.982;2023-04-03T08:39:33;97342.41;;;4.06;67.17
47366;BME280;33105;47.964;7.982;2023-04-03T08:46:22;97347.63;;;3.95;68.04
47366;BME280;33105;47.964;7.982;2023-04-03T08:49:42;97345.94;;;3.87;69.02
47366;BME280;33105;47.964;7.982;2023-04-03T08:52:51;97345.56;;;4.17;67.69
47366;BME280;33105;47.964;7.982;2023-04-03T08:55:54;97344.50;;;4.18;65.61
47366;BME280;33105;47.964;7.982;2023-04-03T08:59:01;97361.72;;;3.97;66.04
47366;BME280;33105;47.964;7.982;2023-04-03T09:02:23;97355.66;;;3.75;68.19
47366;BME280;33105;47.964;7.982;2023-04-03T09:08:51;97363.75;;;3.62;67.29
47366;BME280;33105;47.964;7.982;2023-04-03T09:15:15;97369.44;;;4.06;70.12
47366;BME280;33105;47.964;7.982;2023-04-03T09:18:30;97365.91;;;3.99;70.10
47366;BME280;33105;47.964;7.982;2023-04-03T09:21:35;97360.94;;;4.49;66.75
47366;BME280;33105;47.964;7.982;2023-04-03T09:24:39;97362.41;;;4.58;65.88
47366;BME280;33105;47.964;7.982;2023-04-03T09:27:41;97351.50;;;4.98;65.58
47366;BME280;33105;47.964;7.982;2023-04-03T09:30:42;97343.69;;;4.17;61.00
47366;BME280;33105;47.964;7.982;2023-04-03T09:33:44;97348.25;;;4.23;62.02
47366;BME280;33105;47.964;7.982;2023-04-03T09:36:49;97347.00;;;4.19;61.31
47366;BME280;33105;47.964;7.982;2023-04-03T09:39:52;97344.50;;;4.24;60.27
47366;BME280;33105;47.964;7.982;2023-04-03T09:43:19;97334.31;;;4.20;61.02
47366;BME280;33105;47.964;7.982;2023-04-03T09:46:29;97344.72;;;4.69;59.44
47366;BME280;33105;47.964;7.982;2023-04-03T09:49:31;97340.69;;;4.91;60.19
47366;BME280;33105;47.964;7.982;2023-04-03T09:52:32;97352.41;;;4.65;62.39
47366;BME280;33105;47.964;7.982;2023-04-03T09:55:43;97353.00;;;4.74;62.94
47366;BME280;33105;47.964;7.982;2023-04-03T09:58:52;97353.03;;;4.54;59.98
47366;BME280;33105;47.964;7.982;2023-04-03T10:08:35;97343.81;;;5.46;60.14
47366;BME280;33105;47.964;7.982;2023-04-03T10:11:37;97345.84;;;5.19;59.92
47366;BME280;33105;47.964;7.982;2023-04-03T10:14:53;97346.91;;;5.05;57.75
47366;BME280;33105;47.964;7.982;2023-04-03T10:18:07;97348.63;;;4.93;59.68
47366;BME280;33105;47.964;7.982;2023-04-03T10:34:24;97349.50;;;4.60;58.57
47366;BME280;33105;47.964;7.982;2023-04-03T10:37:54;97352.81;;;4.62;61.02
47366;BME280;33105;47.964;7.982;2023-04-03T10:44:55;97340.50;;;4.93;59.12
47366;BME280;33105;47.964;7.982;2023-04-03T10:51:10;97334.22;;;5.50;59.06
47366;BME280;33105;47.964;7.982;2023-04-03T10:54:20;97344.44;;;4.90;59.00
47366;BME280;33105;47.964;7.982;2023-04-03T10:57:25;97342.38;;;4.79;59.81
47366;BME280;33105;47.964;7.982;2023-04-03T11:00:43;97346.13;;;4.85;60.44
47366;BME280;33105;47.964;7.982;2023-04-03T11:03:52;97345.09;;;4.79;62.17
47366;BME280;33105;47.964;7.982;2023-04-03T11:07:08;97335.28;;;4.85;61.57
47366;BME280;33105;47.964;7.982;2023-04-03T11:10:35;97331.38;;;4.67;61.38
47366;BME280;33105;47.964;7.982;2023-04-03T11:20:21;97326.59;;;4.56;59.58
47366;BME280;33105;47.964;7.982;2023-04-03T11:23:31;97335.69;;;4.95;62.09
47366;BME280;33105;47.964;7.982;2023-04-03T11:26:40;97323.22;;;4.74;60.47
47366;BME280;33105;47.964;7.982;2023-04-03T11:29:44;97319.06;;;4.85;58.92
47366;BME280;33105;47.964;7.982;2023-04-03T11:36:27;97317.81;;;4.87;60.60
47366;BME280;33105;47.964;7.982;2023-04-03T11:39:34;97313.16;;;5.07;61.56
47366;BME280;33105;47.964;7.982;2023-04-03T11:42:38;97301.47;;;5.58;61.65
47366;BME280;33105;47.964;7.982;2023-04-03T11:49:00;97288.09;;;5.63;58.67
47366;BME280;33105;47.964;7.982;2023-04-03T11:52:12;97289.41;;;5.86;61.48
47366;BME280;33105;47.964;7.982;2023-04-03T11:58:33;97296.66;;;5.60;61.24
47366;BME280;33105;47.964;7.982;2023-04-03T12:01:45;97289.47;;;6.10;59.31
47366;BME280;33105;47.964;7.982;2023-04-03T12:08:44;97289.91;;;6.32;59.86
47366;BME280;33105;47.964;7.982;2023-04-03T12:11:47;97290.72;;;5.76;58.14
47366;BME280;33105;47.964;7.982;2023-04-03T12:14:48;97298.81;;;5.45;60.84
47366;BME280;33105;47.964;7.982;2023-04-03T12:17:51;97293.06;;;5.28;61.07
47366;BME280;33105;47.964;7.982;2023-04-03T12:20:57;97299.63;;;5.45;60.82
47366;BME280;33105;47.964;7.982;2023-04-03T12:27:32;97292.56;;;5.44;60.57
47366;BME280;33105;47.964;7.982;2023-04-03T12:30:35;97279.19;;;5.50;59.32
47366;BME280;33105;47.964;7.982;2023-04-03T12:34:09;97284.00;;;5.47;58.91
47366;BME280;33105;47.964;7.982;2023-04-03T12:47:32;97292.19;;;5.41;58.12
47366;BME280;33105;47.964;7.982;2023-04-03T12:50:36;97295.38;;;5.25;59.83
47366;BME280;33105;47.964;7.982;2023-04-03T12:53:38;97287.94;;;5.52;61.97
47366;BME280;33105;47.964;7.982;2023-04-03T12:56:39;97282.09;;;5.86;60.98
47366;BME280;33105;47.964;7.982;2023-04-03T12:59:41;97284.03;;;5.79;60.30
47366;BME280;33105;47.964;7.982;2023-04-03T13:02:44;97287.94;;;5.52;60.54
47366;BME280;33105;47.964;7.982;2023-04-03T13:05:47;97282.78;;;5.75;62.37
47366;BME280;33105;47.964;7.982;2023-04-03T13:08:56;97279.69;;;5.40;60.59
47366;BME280;33105;47.964;7.982;2023-04-03T13:12:15;97267.25;;;5.95;59.46
47366;BME280;33105;47.964;7.982;2023-04-03T13:15:19;97266.97;;;5.72;57.55
47366;BME280;33105;47.964;7.982;2023-04-03T13:18:32;97268.19;;;5.76;60.85
47366;BME280;33105;47.964;7.982;2023-04-03T13:21:34;97263.00;;;6.06;60.02
47366;BME280;33105;47.964;7.982;2023-04-03T13:24:37;97265.19;;;5.59;60.34
47366;BME280;33105;47.964;7.982;2023-04-03T13:27:39;97266.75;;;5.73;60.77
47366;BME280;33105;47.964;7.982;2023-04-03T13:37:30;97254.81;;;6.56;56.92
47366;BME280;33105;47.964;7.982;2023-04-03T13:40:32;97247.66;;;6.43;60.50
47366;BME280;33105;47.964;7.982;2023-04-03T13:43:35;97250.78;;;6.65;59.28
47366;BME280;33105;47.964;7.982;2023-04-03T13:46:37;97241.56;;;6.23;57.67
47366;BME280;33105;47.964;7.982;2023-04-03T13:49:41;97246.59;;;5.94;59.99
47366;BME280;33105;47.964;7.982;2023-04-03T13:52:47;97259.44;;;5.74;60.35
47366;BME280;33105;47.964;7.982;2023-04-03T13:55:58;97256.28;;;5.77;62.79
47366;BME280;33105;47.964;7.982;2023-04-03T14:02:20;97250.00;;;5.83;57.16
47366;BME280;33105;47.964;7.982;2023-04-03T14:05:24;97240.25;;;5.75;57.81
47366;BME280;33105;47.964;7.982;2023-04-03T14:08:26;97236.88;;;5.80;57.45
47366;BME280;33105;47.964;7.982;2023-04-03T14:11:29;97238.50;;;5.88;57.56
47366;BME280;33105;47.964;7.982;2023-04-03T14:14:34;97239.69;;;5.67;57.26
47366;BME280;33105;47.964;7.982;2023-04-03T14:17:36;97240.00;;;5.52;57.90
47366;BME280;33105;47.964;7.982;2023-04-03T14:20:38;97232.22;;;5.24;57.44
47366;BME280;33105;47.964;7.982;2023-04-03T14:23:39;97239.94;;;5.21;59.46
47366;BME280;33105;47.964;7.982;2023-04-03T14:26:40;97227.91;;;5.17;58.53
47366;BME280;33105;47.964;7.982;2023-04-03T14:29:41;97226.38;;;5.27;58.07
47366;BME280;33105;47.964;7.982;2023-04-03T14:32:43;97230.47;;;5.05;58.64
47366;BME280;33105;47.964;7.982;2023-04-03T14:35:45;97218.47;;;5.26;59.60
47366;BME280;33105;47.964;7.982;2023-04-03T14:38:47;97240.00;;;5.14;59.12
47366;BME280;33105;47.964;7.982;2023-04-03T14:41:48;97222.00;;;5.26;58.33
47366;BME280;33105;47.964;7.982;2023-04-03T14:44:50;97224.91;;;5.31;59.57
47366;BME280;33105;47.964;7.982;2023-04-03T14:47:54;97218.16;;;5.09;59.74
47366;BME280;33105;47.964;7.982;2023-04-03T14:50:56;97228.38;;;5.07;60.57
47366;BME280;33105;47.964;7.982;2023-04-03T14:53:57;97234.44;;;5.02;60.20
47366;BME280;33105;47.964;7.982;2023-04-03T14:56:59;97219.00;;;5.03;58.62
47366;BME280;33105;47.964;7.982;2023-04-03T15:00:03;97229.00;;;5.09;58.90
47366;BME280;33105;47.964;7.982;2023-04-03T15:03:05;97223.63;;;4.96;57.54
47366;BME280;33105;47.964;7.982;2023-04-03T15:06:11;97223.75;;;5.14;58.90
47366;BME280;33105;47.964;7.982;2023-04-03T15:09:24;97229.84;;;5.03;59.95
47366;BME280;33105;47.964;7.982;2023-04-03T15:12:25;97225.53;;;5.33;61.12
47366;BME280;33105;47.964;7.982;2023-04-03T15:15:29;97223.53;;;5.16;58.28
47366;BME280;33105;47.964;7.982;2023-04-03T15:18:35;97218.13;;;5.16;58.20
47366;BME280;33105;47.964;7.982;2023-04-03T15:21:39;97226.91;;;5.11;57.31
47366;BME280;33105;47.964;7.982;2023-04-03T15:24:40;97230.75;;;5.28;60.10
47366;BME280;33105;47.964;7.982;2023-04-03T15:27:42;97229.31;;;5.26;58.15
47366;BME280;33105;47.964;7.982;2023-04-03T15:30:43;97233.34;;;5.17;57.72
47366;BME280;33105;47.964;7.982;2023-04-03T15:33:47;97239.44;;;4.99;57.60
47366;BME280;33105;47.964;7.982;2023-04-03T15:36:49;97238.22;;;4.95;58.26
47366;BME280;33105;47.964;7.982;2023-04-03T15:39:51;97242.72;;;5.14;59.85
47366;BME280;33105;47.964;7.982;2023-04-03T15:42:52;97239.63;;;5.04;60.77
47366;BME280;33105;47.964;7.982;2023-04-03T15:45:56;97240.84;;;5.15;58.65
47366;BME280;33105;47.964;7.982;2023-04-03T15:49:00;97238.88;;;5.28;60.79
47366;BME280;33105;47.964;7.982;2023-04-03T15:52:02;97234.41;;;5.09;59.40
47366;BME280;33105;47.964;7.982;2023-04-03T15:55:04;97240.47;;;5.04;60.47
47366;BME280;33105;47.964;7.982;2023-04-03T15:58:06;97237.53;;;5.06;59.30
47366;BME280;33105;47.964;7.982;2023-04-03T16:01:09;97233.16;;;5.11;57.26
47366;BME280;33105;47.964;7.982;2023-04-03T16:04:11;97225.53;;;4.89;57.51
47366;BME280;33105;47.964;7.982;2023-04-03T16:07:12;97235.22;;;5.09;58.96
47366;BME280;33105;47.964;7.982;2023-04-03T16:10:16;97230.34;;;4.87;56.90
47366;BME280;33105;47.964;7.982;2023-04-03T16:13:18;97235.78;;;4.80;58.14
47366;BME280;33105;47.964;7.982;2023-04-03T16:16:19;97228.88;;;4.91;58.33
47366;BME280;33105;47.964;7.982;2023-04-03T16:19:20;97238.38;;;5.00;58.45
47366;BME280;33105;47.964;7.982;2023-04-03T16:22:26;97233.47;;;4.77;58.03
47366;BME280;33105;47.964;7.982;2023-04-03T16:25:28;97236.81;;;4.72;56.74
47366;BME280;33105;47.964;7.982;2023-04-03T16:28:31;97240.78;;;4.76;58.40
47366;BME280;33105;47.964;7.982;2023-04-03T16:31:33;97229.84;;;5.03;58.51
47366;BME280;33105;47.964;7.982;2023-04-03T16:34:35;97234.13;;;4.72;58.61
47366;BME280;33105;47.964;7.982;2023-04-03T16:37:36;97239.19;;;4.49;57.24
47366;BME280;33105;47.964;7.982;2023-04-03T16:40:38;97241.69;;;4.51;58.20
47366;BME280;33105;47.964;7.982;2023-04-03T16:43:39;97235.63;;;4.55;58.03
47366;BME280;33105;47.964;7.982;2023-04-03T16:46:40;97234.50;;;4.83;58.88
47366;BME280;33105;47.964;7.982;2023-04-03T16:49:42;97246.63;;;4.73;58.47
47366;BME280;33105;47.964;7.982;2023-04-03T16:52:46;97234.16;;;4.66;58.49
47366;BME280;33105;47.964;7.982;2023-04-03T16:55:48;97243.34;;;4.52;58.27
47366;BME280;33105;47.964;7.982;2023-04-03T16:58:49;97245.69;;;4.35;57.63
47366;BME280;33105;47.964;7.982;2023-04-03T17:01:50;97244.59;;;4.49;58.25
47366;BME280;33105;47.964;7.982;2023-04-03T17:04:52;97255.00;;;4.52;57.60
47366;BME280;33105;47.964;7.982;2023-04-03T17:07:54;97245.63;;;4.48;58.04
47366;BME280;33105;47.964;7.982;2023-04-03T17:10:55;97254.22;;;4.32;59.88
47366;BME280;33105;47.964;7.982;2023-04-03T17:13:56;97246.50;;;4.35;58.86
47366;BME280;33105;47.964;7.982;2023-04-03T17:16:57;97254.56;;;4.55;58.51
47366;BME280;33105;47.964;7.982;2023-04-03T17:19:59;97254.00;;;4.40;59.19
47366;BME280;33105;47.964;7.982;2023-04-03T17:23:00;97252.09;;;4.47;60.32
47366;BME280;33105;47.964;7.982;2023-04-03T17:26:03;97246.09;;;4.45;58.50
47366;BME280;33105;47.964;7.982;2023-04-03T17:29:05;97250.47;;;4.33;58.24
47366;BME280;33105;47.964;7.982;2023-04-03T17:32:07;97241.72;;;4.24;60.66
47366;BME280;33105;47.964;7.982;2023-04-03T17:35:08;97248.38;;;4.22;60.82
47366;BME280;33105;47.964;7.982;2023-04-03T17:38:09;97242.59;;;4.12;58.71
47366;BME280;33105;47.964;7.982;2023-04-03T17:41:10;97251.72;;;4.24;61.12
47366;BME280;33105;47.964;7.982;2023-04-03T17:44:12;97249.84;;;4.44;60.20
47366;BME280;33105;47.964;7.982;2023-04-03T17:47:13;97252.97;;;4.41;58.75
47366;BME280;33105;47.964;7.982;2023-04-03T17:50:14;97253.38;;;4.38;61.52
47366;BME280;33105;47.964;7.982;2023-04-03T17:53:16;97246.09;;;4.32;61.73
47366;BME280;33105;47.964;7.982;2023-04-03T17:56:21;97248.38;;;4.28;61.17